createdAt,value
2018-08-24T00:00:37.172Z,3.77
2018-08-24T00:03:05.627Z,3.17
2018-08-24T00:05:34.153Z,2.80
2018-08-24T00:08:02.792Z,2.87
2018-08-24T00:10:31.352Z,2.73
2018-08-24T00:12:59.832Z,2.47
2018-08-24T00:15:28.325Z,2.73
2018-08-24T00:17:56.836Z,2.50
2018-08-24T00:20:25.307Z,2.40
2018-08-24T00:22:53.788Z,1.90
2018-08-24T00:25:22.268Z,1.50
2018-08-24T00:27:50.751Z,1.10
2018-08-24T00:30:19.211Z,1.00
2018-08-24T00:32:47.716Z,0.70
2018-08-24T00:35:16.205Z,1.17
2018-08-24T00:37:44.709Z,1.83
2018-08-24T00:40:13.166Z,0.90
2018-08-24T00:42:41.672Z,0.80
2018-08-24T00:45:10.150Z,0.73
2018-08-24T00:47:38.585Z,0.97
2018-08-24T00:50:07.087Z,0.73
2018-08-24T00:52:35.591Z,0.97
2018-08-24T00:55:04.056Z,1.17
2018-08-24T00:57:32.508Z,0.80
2018-08-24T01:00:00.983Z,0.93
2018-08-24T01:02:29.488Z,0.93
2018-08-24T01:04:57.944Z,1.10
2018-08-24T01:07:26.490Z,1.00
2018-08-24T01:09:54.960Z,1.20
2018-08-24T01:12:23.376Z,1.30
2018-08-24T01:14:51.898Z,1.33
2018-08-24T01:17:25.692Z,1.30
2018-08-24T01:19:54.177Z,1.57
2018-08-24T01:22:22.647Z,1.30
2018-08-24T01:24:51.149Z,1.30
2018-08-24T01:27:19.607Z,1.50
2018-08-24T01:29:48.112Z,1.50
2018-08-24T01:32:16.581Z,1.63
2018-08-24T01:34:45.076Z,1.97
2018-08-24T01:37:13.616Z,2.17
2018-08-24T01:39:42.147Z,1.93
2018-08-24T01:42:10.612Z,1.93
2018-08-24T01:44:39.084Z,1.50
2018-08-24T01:47:07.592Z,2.00
2018-08-24T01:49:36.105Z,1.63
2018-08-24T01:52:04.530Z,1.80
2018-08-24T01:54:33.033Z,2.47
2018-08-24T01:57:01.511Z,2.40
2018-08-24T01:59:29.963Z,2.03
2018-08-24T02:01:58.484Z,2.13
2018-08-24T02:04:26.935Z,2.57
2018-08-24T02:06:55.425Z,2.17
2018-08-24T02:09:24.334Z,1.80
2018-08-24T02:11:52.823Z,1.90
2018-08-24T02:14:26.666Z,2.00
2018-08-24T02:16:55.135Z,1.93
2018-08-24T02:19:28.883Z,1.90
2018-08-24T02:22:02.849Z,1.90
2018-08-24T02:24:31.309Z,1.50
2018-08-24T02:26:59.779Z,1.40
2018-08-24T02:29:28.247Z,1.80
2018-08-24T02:31:56.707Z,1.50
2018-08-24T02:34:25.241Z,2.00
2018-08-24T02:36:53.680Z,1.53
2018-08-24T02:39:22.206Z,1.80
2018-08-24T02:41:50.672Z,1.57
2018-08-24T02:44:19.197Z,1.60
2018-08-24T02:46:47.618Z,2.00
2018-08-24T02:49:16.107Z,1.50
2018-08-24T02:51:44.622Z,1.87
2018-08-24T02:54:13.058Z,1.83
2018-08-24T02:56:41.552Z,1.90
2018-08-24T02:59:10.035Z,1.57
2018-08-24T03:01:38.523Z,2.30
2018-08-24T03:04:07.021Z,2.17
2018-08-24T03:06:35.496Z,2.30
2018-08-24T03:09:06.088Z,2.00
2018-08-24T03:11:34.644Z,2.43
2018-08-24T03:14:03.059Z,2.33
2018-08-24T03:16:31.597Z,2.00
2018-08-24T03:19:00.043Z,2.03
2018-08-24T03:21:28.637Z,2.80
2018-08-24T03:23:57.095Z,2.60
2018-08-24T03:26:25.581Z,2.83
2018-08-24T03:28:54.074Z,2.87
2018-08-24T03:31:22.538Z,2.80
2018-08-24T03:33:51.072Z,2.57
2018-08-24T03:36:19.503Z,2.43
2018-08-24T03:38:49.032Z,3.50
2018-08-24T03:41:17.508Z,2.83
2018-08-24T03:43:45.963Z,3.57
2018-08-24T03:46:14.583Z,3.90
2018-08-24T03:48:43.148Z,4.20
2018-08-24T03:51:11.625Z,4.00
2018-08-24T03:53:40.143Z,4.47
2018-08-24T03:56:08.608Z,4.50
2018-08-24T03:58:37.060Z,4.43
2018-08-24T04:01:05.817Z,5.10
2018-08-24T04:03:34.219Z,4.60
2018-08-24T04:06:02.711Z,4.60
2018-08-24T04:15:30.456Z,4.80
2018-08-24T04:17:58.948Z,4.63
2018-08-24T04:20:27.383Z,5.50
2018-08-24T04:22:56.013Z,5.03
2018-08-24T04:25:24.515Z,5.03
2018-08-24T04:27:52.959Z,5.30
2018-08-24T04:30:21.404Z,4.70
2018-08-24T04:32:49.969Z,5.53
2018-08-24T04:35:18.396Z,5.00
2018-08-24T04:37:46.934Z,5.70
2018-08-24T04:40:15.382Z,6.10
2018-08-24T04:42:43.843Z,6.37
2018-08-24T04:45:12.379Z,6.17
2018-08-24T04:47:40.793Z,6.60
2018-08-24T04:50:09.931Z,6.90
2018-08-24T04:52:38.380Z,6.00
2018-08-24T04:55:06.859Z,6.30
2018-08-24T04:57:35.347Z,6.33
2018-08-24T05:00:03.825Z,6.40
2018-08-24T05:02:32.297Z,6.70
2018-08-24T05:05:00.705Z,6.80
2018-08-24T05:07:29.111Z,8.50
2018-08-24T05:09:57.526Z,7.00
2018-08-24T05:12:25.913Z,7.07
2018-08-24T05:14:54.323Z,7.63
2018-08-24T05:17:22.723Z,7.80
2018-08-24T05:19:51.140Z,7.67
2018-08-24T05:22:19.548Z,8.23
2018-08-24T05:24:47.974Z,8.73
2018-08-24T05:27:16.397Z,9.10
2018-08-24T05:29:44.796Z,8.93
2018-08-24T05:32:13.203Z,9.07
2018-08-24T05:34:41.607Z,9.83
2018-08-24T05:37:10.016Z,9.00
2018-08-24T05:39:38.403Z,10.60
2018-08-24T05:42:06.980Z,10.83
2018-08-24T05:44:35.382Z,9.87
2018-08-24T05:47:03.800Z,10.13
2018-08-24T05:49:32.193Z,9.50
2018-08-24T05:52:00.628Z,10.47
2018-08-24T05:54:29.034Z,10.07
2018-08-24T05:56:57.439Z,10.60
2018-08-24T05:59:25.848Z,10.97
2018-08-24T06:01:55.159Z,9.80
2018-08-24T06:04:23.572Z,10.47
2018-08-24T06:06:52.020Z,10.87
2018-08-24T06:09:20.469Z,9.80
2018-08-24T06:11:48.901Z,9.83
2018-08-24T06:14:17.408Z,11.17
2018-08-24T06:16:50.061Z,10.50
2018-08-24T06:19:19.116Z,10.30
2018-08-24T06:21:47.540Z,10.63
2018-08-24T06:24:15.975Z,11.00
2018-08-24T06:26:44.399Z,11.67
2018-08-24T06:29:12.851Z,11.83
2018-08-24T06:31:41.290Z,10.10
2018-08-24T06:34:09.790Z,11.97
2018-08-24T06:36:38.416Z,11.00
2018-08-24T06:39:09.391Z,10.80
2018-08-24T06:41:38.066Z,11.93
2018-08-24T06:44:06.723Z,11.57
2018-08-24T06:46:35.172Z,10.63
2018-08-24T06:49:03.859Z,10.07
2018-08-24T06:51:32.312Z,11.50
2018-08-24T06:54:00.991Z,10.33
2018-08-24T06:56:29.512Z,9.40
2018-08-24T06:58:58.019Z,9.53
2018-08-24T07:01:26.443Z,10.33
2018-08-24T07:03:54.847Z,9.63
2018-08-24T07:06:23.248Z,10.50
2018-08-24T07:08:51.674Z,10.30
2018-08-24T07:11:20.092Z,10.17
2018-08-24T07:13:50.063Z,10.40
2018-08-24T07:16:18.859Z,10.70
2018-08-24T07:18:47.302Z,10.20
2018-08-24T07:21:15.736Z,11.17
2018-08-24T07:23:44.163Z,11.17
2018-08-24T07:26:12.588Z,10.50
2018-08-24T07:28:41.021Z,10.53
2018-08-24T07:31:09.435Z,10.97
2018-08-24T07:33:37.991Z,11.17
2018-08-24T07:36:06.585Z,10.20
2018-08-24T07:38:34.996Z,10.80
2018-08-24T07:41:03.479Z,10.00
2018-08-24T07:43:31.950Z,9.90
2018-08-24T07:46:00.428Z,11.17
2018-08-24T07:48:28.852Z,9.57
2018-08-24T07:50:57.335Z,10.20
2018-08-24T07:53:25.707Z,9.43
2018-08-24T07:55:54.184Z,9.77
2018-08-24T07:58:22.633Z,10.77
2018-08-24T08:00:51.123Z,11.07
2018-08-24T08:03:19.570Z,11.07
2018-08-24T08:05:48.075Z,10.30
2018-08-24T08:08:16.549Z,10.57
2018-08-24T08:10:45.005Z,10.90
2018-08-24T08:13:13.427Z,11.07
2018-08-24T08:15:42.073Z,10.13
2018-08-24T08:18:10.563Z,10.03
2018-08-24T08:20:38.976Z,9.43
2018-08-24T08:23:07.407Z,10.17
2018-08-24T08:25:35.813Z,9.43
2018-08-24T08:28:04.260Z,9.50
2018-08-24T08:30:32.707Z,10.70
2018-08-24T08:33:01.171Z,10.80
2018-08-24T08:35:29.588Z,11.17
2018-08-24T08:37:58.055Z,9.83
2018-08-24T08:40:26.467Z,10.90
2018-08-24T08:42:54.967Z,10.60
2018-08-24T08:45:23.423Z,11.17
2018-08-24T08:47:51.807Z,10.00
2018-08-24T08:50:20.256Z,10.53
2018-08-24T08:52:48.751Z,11.47
2018-08-24T08:55:17.280Z,10.20
2018-08-24T08:57:45.783Z,9.93
2018-08-24T09:00:14.339Z,10.03
2018-08-24T09:02:42.861Z,10.93
2018-08-24T09:05:11.348Z,9.77
2018-08-24T09:07:39.805Z,9.10
2018-08-24T09:10:08.298Z,10.07
2018-08-24T09:12:36.784Z,10.90
2018-08-24T09:15:05.656Z,10.77
2018-08-24T09:17:39.373Z,10.50
2018-08-24T09:20:13.278Z,10.40
2018-08-24T09:22:47.052Z,10.50
2018-08-24T09:25:20.905Z,10.97
2018-08-24T09:27:54.688Z,10.73
2018-08-24T09:30:24.663Z,10.07
2018-08-24T09:32:53.237Z,10.27
2018-08-24T09:35:21.819Z,9.40
2018-08-24T09:37:50.246Z,8.93
2018-08-24T09:40:18.820Z,8.63
2018-08-24T09:42:47.231Z,8.00
2018-08-24T09:45:15.624Z,7.17
2018-08-24T09:47:49.408Z,7.03
2018-08-24T09:50:23.256Z,5.40
2018-08-24T09:52:57.130Z,6.10
2018-08-24T09:55:29.775Z,4.40
2018-08-24T09:57:58.176Z,5.10
2018-08-24T10:00:30.916Z,4.23
2018-08-24T10:03:04.628Z,4.33
2018-08-24T10:05:38.340Z,3.67
2018-08-24T10:08:11.932Z,3.80
2018-08-24T10:10:40.327Z,3.50
2018-08-24T10:13:08.789Z,3.70
2018-08-24T10:15:37.269Z,4.80
2018-08-24T10:18:05.875Z,4.93
2018-08-24T10:20:34.314Z,4.27
2018-08-24T10:23:02.728Z,3.67
2018-08-24T10:25:31.219Z,3.50
2018-08-24T10:27:59.646Z,4.33
2018-08-24T10:30:28.135Z,3.37
2018-08-24T10:32:56.568Z,3.20
2018-08-24T10:35:24.988Z,3.33
2018-08-24T10:37:53.678Z,3.63
2018-08-24T10:40:22.467Z,3.93
2018-08-24T10:42:50.883Z,3.67
2018-08-24T10:45:19.324Z,4.03
2018-08-24T10:47:47.766Z,4.50
2018-08-24T10:50:16.259Z,6.00
2018-08-24T10:52:44.672Z,4.40
2018-08-24T10:55:13.125Z,4.60
2018-08-24T10:57:41.700Z,3.43
2018-08-24T11:00:10.105Z,2.93
2018-08-24T11:02:38.528Z,4.93
2018-08-24T11:05:07.112Z,3.43
2018-08-24T11:07:35.575Z,3.00
2018-08-24T11:10:03.982Z,3.60
2018-08-24T11:12:33.212Z,2.83
2018-08-24T11:15:03.735Z,3.10
2018-08-24T11:17:37.576Z,2.87
2018-08-24T11:20:06.352Z,3.00
2018-08-24T11:22:34.934Z,4.40
2018-08-24T11:25:03.335Z,2.63
2018-08-24T11:27:32.284Z,3.50
2018-08-24T11:30:00.752Z,4.00
2018-08-24T11:32:29.252Z,2.77
2018-08-24T11:34:57.877Z,3.40
2018-08-24T11:37:26.419Z,2.57
2018-08-24T11:39:54.844Z,2.70
2018-08-24T11:42:23.290Z,3.10
2018-08-24T11:44:51.767Z,2.77
2018-08-24T11:47:20.760Z,2.23
2018-08-24T11:49:51.531Z,2.73
2018-08-24T11:52:21.116Z,3.20
2018-08-24T11:54:49.636Z,2.30
2018-08-24T11:57:18.144Z,2.60
2018-08-24T11:59:46.670Z,3.20
2018-08-24T12:02:15.085Z,3.07
2018-08-24T12:04:43.646Z,2.10
2018-08-24T12:07:12.265Z,2.87
2018-08-24T12:09:40.918Z,1.93
2018-08-24T12:12:09.381Z,1.87
2018-08-24T12:14:37.976Z,2.40
2018-08-24T12:17:07.955Z,2.20
2018-08-24T12:19:36.488Z,2.43
2018-08-24T12:22:05.023Z,2.87
2018-08-24T12:24:33.754Z,2.47
2018-08-24T12:27:02.280Z,1.30
2018-08-24T12:29:30.853Z,2.07
2018-08-24T12:31:59.499Z,2.17
2018-08-24T12:34:27.934Z,1.77
2018-08-24T12:36:56.448Z,1.63
2018-08-24T12:39:24.895Z,2.23
2018-08-24T12:41:53.396Z,2.07
2018-08-24T12:44:21.912Z,1.70
2018-08-24T12:46:50.393Z,1.97
2018-08-24T12:49:18.867Z,2.10
2018-08-24T12:51:47.398Z,2.17
2018-08-24T12:54:15.981Z,1.90
2018-08-24T12:56:44.386Z,1.97
2018-08-24T12:59:12.891Z,1.50
2018-08-24T13:01:41.368Z,2.00
2018-08-24T13:04:09.819Z,1.70
2018-08-24T13:06:38.324Z,1.37
2018-08-24T13:09:08.630Z,1.53
2018-08-24T13:11:37.156Z,1.27
2018-08-24T13:14:05.686Z,1.40
2018-08-24T13:16:34.202Z,2.07
2018-08-24T13:19:02.840Z,1.47
2018-08-24T13:21:31.452Z,1.37
2018-08-24T13:23:59.830Z,1.47
2018-08-24T13:26:28.339Z,1.30
2018-08-24T13:28:56.869Z,1.63
2018-08-24T13:31:25.435Z,1.30
2018-08-24T13:33:53.887Z,1.43
2018-08-24T13:36:22.357Z,1.50
2018-08-24T13:38:50.858Z,1.30
2018-08-24T13:41:19.356Z,1.20
2018-08-24T13:43:47.875Z,1.60
2018-08-24T13:46:20.516Z,2.13
2018-08-24T13:48:49.903Z,1.63
2018-08-24T13:51:18.542Z,1.70
2018-08-24T13:53:47.310Z,1.90
2018-08-24T13:56:16.103Z,1.50
2018-08-24T13:58:44.648Z,1.30
2018-08-24T14:01:14.234Z,1.53
2018-08-24T14:03:42.763Z,1.70
2018-08-24T14:06:11.223Z,1.53
2018-08-24T14:08:39.732Z,1.27
2018-08-24T14:11:08.244Z,1.63
2018-08-24T14:13:36.838Z,1.57
2018-08-24T14:16:05.476Z,1.07
2018-08-24T14:18:33.967Z,1.50
2018-08-24T14:21:02.568Z,1.37
2018-08-24T14:23:31.095Z,1.50
2018-08-24T14:25:59.589Z,1.20
2018-08-24T14:28:28.222Z,1.20
2018-08-24T14:30:56.752Z,2.20
2018-08-24T14:33:25.291Z,1.43
2018-08-24T14:35:53.819Z,1.87
2018-08-24T14:38:22.414Z,1.67
2018-08-24T14:40:50.812Z,1.37
2018-08-24T14:43:19.504Z,1.17
2018-08-24T14:45:48.056Z,1.40
2018-08-24T14:48:16.579Z,0.90
2018-08-24T14:50:45.016Z,1.60
2018-08-24T14:53:13.572Z,1.60
2018-08-24T14:55:42.204Z,1.63
2018-08-24T14:58:10.860Z,1.47
2018-08-24T15:00:39.349Z,1.27
2018-08-24T15:03:07.855Z,1.80
2018-08-24T15:05:36.317Z,2.00
2018-08-24T15:08:04.876Z,1.73
2018-08-24T15:10:33.351Z,1.70
2018-08-24T15:13:01.880Z,1.80
2018-08-24T15:15:31.071Z,1.43
2018-08-24T15:17:59.535Z,1.70
2018-08-24T15:20:28.008Z,1.57
2018-08-24T15:22:56.574Z,1.70
2018-08-24T15:25:25.124Z,1.63
2018-08-24T15:27:53.555Z,1.57
2018-08-24T15:30:22.055Z,1.50
2018-08-24T15:32:50.687Z,1.77
2018-08-24T15:35:19.338Z,1.17
2018-08-24T15:37:47.706Z,1.60
2018-08-24T15:40:16.180Z,1.50
2018-08-24T15:42:44.623Z,1.90
2018-08-24T15:45:13.153Z,1.60
2018-08-24T15:47:41.612Z,1.33
2018-08-24T15:50:10.170Z,1.60
2018-08-24T15:52:38.722Z,1.47
2018-08-24T15:55:07.433Z,1.37
2018-08-24T15:57:36.160Z,1.30
2018-08-24T16:00:06.082Z,1.00
2018-08-24T16:02:34.652Z,1.50
2018-08-24T16:05:03.191Z,1.20
2018-08-24T16:07:35.052Z,1.63
2018-08-24T16:10:03.472Z,1.40
2018-08-24T16:12:31.967Z,1.50
2018-08-24T16:15:00.476Z,1.57
2018-08-24T16:17:28.918Z,1.20
2018-08-24T16:19:57.441Z,1.60
2018-08-24T16:22:25.988Z,1.30
2018-08-24T16:24:54.750Z,1.70
2018-08-24T16:27:24.314Z,1.23
2018-08-24T16:29:55.143Z,1.00
2018-08-24T16:32:23.645Z,1.43
2018-08-24T16:34:52.288Z,1.30
2018-08-24T16:37:21.012Z,1.30
2018-08-24T16:39:49.463Z,1.60
2018-08-24T16:42:17.935Z,2.00
2018-08-24T16:44:47.007Z,1.83
2018-08-24T16:47:15.595Z,1.77
2018-08-24T16:49:44.080Z,1.83
2018-08-24T16:52:12.571Z,1.80
2018-08-24T16:54:41.132Z,1.87
2018-08-24T16:57:09.695Z,2.33
2018-08-24T16:59:38.264Z,1.70
2018-08-24T17:02:06.951Z,1.57
2018-08-24T17:04:35.433Z,2.10
2018-08-24T17:07:03.964Z,1.53
2018-08-24T17:09:32.484Z,2.50
2018-08-24T17:12:00.971Z,1.80
2018-08-24T17:14:29.464Z,1.90
2018-08-24T17:16:57.899Z,1.60
2018-08-24T17:19:26.419Z,1.60
2018-08-24T17:21:55.093Z,1.83
2018-08-24T17:24:23.592Z,1.57
2018-08-24T17:26:52.075Z,3.37
2018-08-24T17:29:20.516Z,1.83
2018-08-24T17:31:49.048Z,2.20
2018-08-24T17:34:17.517Z,2.07
2018-08-24T17:36:45.960Z,1.40
2018-08-24T17:39:15.475Z,1.50
2018-08-24T17:42:47.415Z,1.90
2018-08-24T17:45:15.959Z,2.30
2018-08-24T17:47:44.462Z,2.17
2018-08-24T17:50:12.880Z,2.10
2018-08-24T17:52:42.427Z,2.30
2018-08-24T17:55:10.864Z,2.27
2018-08-24T17:57:39.427Z,1.70
2018-08-24T18:00:08.047Z,1.83
2018-08-24T18:02:36.611Z,2.33
2018-08-24T18:05:05.525Z,1.60
2018-08-24T18:07:34.118Z,2.23
2018-08-24T18:10:02.937Z,2.50
2018-08-24T18:12:31.372Z,2.57
2018-08-24T18:15:00.013Z,1.90
2018-08-24T18:17:28.484Z,1.80
2018-08-24T18:19:57.032Z,2.27
2018-08-24T18:22:25.504Z,2.30
2018-08-24T18:24:54.052Z,2.00
2018-08-24T18:27:22.583Z,2.37
2018-08-24T18:29:51.095Z,2.23
2018-08-24T18:32:19.567Z,2.40
2018-08-24T18:34:48.047Z,2.37
2018-08-24T18:37:16.494Z,2.73
2018-08-24T18:39:44.952Z,2.07
2018-08-24T18:42:13.475Z,1.83
2018-08-24T18:44:41.948Z,2.30
2018-08-24T18:47:10.756Z,2.00
2018-08-24T18:49:39.224Z,2.20
2018-08-24T18:52:07.765Z,1.97
2018-08-24T18:54:36.663Z,2.00
2018-08-24T18:57:05.171Z,1.90
2018-08-24T18:59:33.664Z,3.23
2018-08-24T19:02:02.188Z,2.70
2018-08-24T19:04:30.745Z,2.10
2018-08-24T19:06:59.193Z,2.50
2018-08-24T19:09:27.806Z,2.60
2018-08-24T19:12:02.387Z,2.40
2018-08-24T19:14:30.938Z,3.50
2018-08-24T19:16:59.404Z,2.50
2018-08-24T19:19:33.175Z,2.63
2018-08-24T19:22:04.442Z,1.80
2018-08-24T19:24:33.123Z,2.43
2018-08-24T19:27:01.645Z,1.70
2018-08-24T19:29:35.477Z,1.93
2018-08-24T19:32:04.084Z,1.90
2018-08-24T19:34:33.594Z,2.10
2018-08-24T19:37:02.184Z,1.43
2018-08-24T19:39:30.944Z,1.83
2018-08-24T19:42:04.809Z,1.83
2018-08-24T19:44:33.312Z,1.60
2018-08-24T19:47:01.760Z,1.60
2018-08-24T19:49:30.345Z,1.50
2018-08-24T19:51:58.818Z,1.20
2018-08-24T19:54:27.303Z,1.73
2018-08-24T19:56:58.180Z,1.63
2018-08-24T19:59:26.844Z,1.40
2018-08-24T20:01:55.287Z,1.67
2018-08-24T20:04:23.827Z,1.50
2018-08-24T20:06:57.620Z,1.40
2018-08-24T20:09:31.496Z,2.20
2018-08-24T20:11:59.963Z,1.37
2018-08-24T20:14:33.813Z,1.30
2018-08-24T20:17:07.512Z,1.50
2018-08-24T20:19:35.979Z,2.20
2018-08-24T20:22:04.781Z,1.80
2018-08-24T20:24:33.346Z,1.10
2018-08-24T20:27:01.758Z,1.20
2018-08-24T20:29:30.312Z,1.40
2018-08-24T20:31:58.811Z,1.20
2018-08-24T20:34:27.247Z,1.00
2018-08-24T20:36:55.673Z,1.60
2018-08-24T20:39:24.123Z,1.40
2018-08-24T20:41:52.645Z,1.00
2018-08-24T20:44:21.184Z,1.50
2018-08-24T20:46:49.720Z,1.20
2018-08-24T20:49:18.160Z,1.53
2018-08-24T20:51:46.669Z,1.33
2018-08-24T20:54:15.425Z,1.60
2018-08-24T20:56:43.920Z,1.23
2018-08-24T20:59:12.410Z,1.30
2018-08-24T21:01:40.963Z,1.77
2018-08-24T21:04:09.492Z,1.70
2018-08-24T21:06:37.944Z,1.87
2018-08-24T21:09:08.599Z,1.90
2018-08-24T21:11:37.056Z,1.90
2018-08-24T21:14:05.846Z,1.90
2018-08-24T21:16:34.447Z,1.60
2018-08-24T21:19:03.152Z,2.20
2018-08-24T21:21:31.865Z,2.00
2018-08-24T21:24:00.476Z,1.73
2018-08-24T21:26:30.033Z,1.50
2018-08-24T21:28:58.529Z,1.63
2018-08-24T21:31:27.056Z,2.10
2018-08-24T21:33:55.536Z,1.90
2018-08-24T21:36:24.036Z,1.63
2018-08-24T21:38:52.500Z,1.43
2018-08-24T21:41:21.288Z,1.10
2018-08-24T21:43:49.831Z,1.87
2018-08-24T21:46:18.411Z,2.07
2018-08-24T21:48:46.847Z,1.60
2018-08-24T21:51:15.377Z,1.37
2018-08-24T21:53:43.784Z,1.40
2018-08-24T21:56:12.289Z,1.20
2018-08-24T21:58:40.778Z,1.70
2018-08-24T22:01:09.320Z,1.77
2018-08-24T22:03:37.747Z,1.70
2018-08-24T22:06:06.223Z,1.90
2018-08-24T22:08:34.680Z,1.20
2018-08-24T22:11:03.252Z,1.30
2018-08-24T22:13:31.796Z,1.73
2018-08-24T22:16:00.260Z,1.63
2018-08-24T22:18:28.803Z,1.27
2018-08-24T22:20:57.303Z,1.70
2018-08-24T22:23:25.766Z,1.43
2018-08-24T22:25:54.275Z,1.37
2018-08-24T22:28:22.759Z,1.50
2018-08-24T22:30:51.207Z,1.13
2018-08-24T22:33:19.719Z,1.30
2018-08-24T22:35:48.187Z,1.63
2018-08-24T22:38:17.724Z,1.80
2018-08-24T22:40:46.179Z,1.43
2018-08-24T22:43:19.823Z,1.37
2018-08-24T22:45:48.295Z,1.33
2018-08-24T22:48:16.764Z,1.60
2018-08-24T22:50:45.228Z,1.43
2018-08-24T22:53:13.728Z,1.47
2018-08-24T22:55:42.178Z,1.27
2018-08-24T22:58:10.680Z,1.50
2018-08-24T23:00:39.203Z,1.43
2018-08-24T23:03:07.686Z,1.57
2018-08-24T23:05:36.112Z,1.23
2018-08-24T23:08:04.943Z,2.43
2018-08-24T23:10:33.413Z,1.40
2018-08-24T23:13:01.885Z,1.13
2018-08-24T23:15:30.460Z,1.97
2018-08-24T23:17:58.923Z,1.67
2018-08-24T23:20:27.449Z,1.17
2018-08-24T23:22:55.891Z,1.60
2018-08-24T23:25:24.512Z,2.80
2018-08-24T23:27:52.964Z,2.93
2018-08-24T23:30:21.508Z,1.30
2018-08-24T23:32:49.932Z,1.40
2018-08-24T23:35:18.419Z,1.10
2018-08-24T23:37:46.948Z,1.53
2018-08-24T23:40:15.387Z,1.90
2018-08-24T23:42:43.835Z,4.13
2018-08-24T23:45:12.335Z,3.77
2018-08-24T23:47:40.821Z,1.07
2018-08-24T23:50:09.358Z,0.97
2018-08-24T23:52:37.815Z,2.00
